createdAt,value
2022-09-03T00:02:17.733Z,14.96
2022-09-03T00:04:58.093Z,14.89
2022-09-03T00:07:47.250Z,14.76
2022-09-03T00:10:27.790Z,14.69
2022-09-03T00:13:00.201Z,14.70
2022-09-03T00:15:27.725Z,14.70
2022-09-03T00:18:11.650Z,14.53
2022-09-03T00:20:43.951Z,14.50
2022-09-03T00:23:18.572Z,14.53
2022-09-03T00:25:55.753Z,14.44
2022-09-03T00:28:52.704Z,14.38
2022-09-03T00:31:32.828Z,14.28
2022-09-03T00:34:08.666Z,14.25
2022-09-03T00:36:43.286Z,14.28
2022-09-03T00:39:16.202Z,14.21
2022-09-03T00:41:57.786Z,14.21
2022-09-03T00:44:39.812Z,14.13
2022-09-03T00:47:28.098Z,14.03
2022-09-03T00:50:07.425Z,14.04
2022-09-03T00:52:50.919Z,13.97
2022-09-03T00:55:45.304Z,13.94
2022-09-03T00:58:26.590Z,13.93
2022-09-03T01:00:53.034Z,13.88
2022-09-03T01:03:51.194Z,13.82
2022-09-03T01:06:23.458Z,13.82
2022-09-03T01:09:13.959Z,13.78
2022-09-03T01:11:49.899Z,13.71
2022-09-03T01:14:28.109Z,13.65
2022-09-03T01:17:19.225Z,13.63
2022-09-03T01:20:00.628Z,13.63
2022-09-03T01:22:51.629Z,13.54
2022-09-03T01:25:38.868Z,13.62
2022-09-03T01:28:44.389Z,13.55
2022-09-03T01:31:23.039Z,13.55
2022-09-03T01:34:11.394Z,13.52
2022-09-03T01:36:47.378Z,13.45
2022-09-03T01:39:22.847Z,13.49
2022-09-03T01:42:14.107Z,13.49
2022-09-03T01:45:07.346Z,13.49
2022-09-03T01:47:51.853Z,13.38
2022-09-03T01:50:36.455Z,13.40
2022-09-03T01:55:56.524Z,13.38
2022-09-03T01:58:31.320Z,13.35
2022-09-03T02:01:05.402Z,13.34
2022-09-03T02:03:41.407Z,13.36
2022-09-03T02:06:09.221Z,13.33
2022-09-03T02:08:35.819Z,13.38
2022-09-03T02:11:08.593Z,13.36
2022-09-03T02:13:37.720Z,13.39
2022-09-03T02:16:16.574Z,13.32
2022-09-03T02:18:48.234Z,13.27
2022-09-03T02:21:20.368Z,13.28
2022-09-03T02:23:48.394Z,13.28
2022-09-03T02:26:19.894Z,13.17
2022-09-03T02:28:46.918Z,13.17
2022-09-03T02:31:13.317Z,13.15
2022-09-03T02:33:43.354Z,13.13
2022-09-03T02:36:12.645Z,13.15
2022-09-03T02:38:42.001Z,13.18
2022-09-03T02:41:08.925Z,13.08
2022-09-03T02:43:50.022Z,13.07
2022-09-03T02:46:21.512Z,13.02
2022-09-03T02:48:48.463Z,13.04
2022-09-03T02:51:14.970Z,12.99
2022-09-03T02:53:42.682Z,12.98
2022-09-03T02:56:09.401Z,12.97
2022-09-03T02:58:35.783Z,13.01
2022-09-03T03:01:03.838Z,12.94
2022-09-03T03:03:30.378Z,12.92
2022-09-03T03:06:00.547Z,12.91
2022-09-03T03:08:28.759Z,12.81
2022-09-03T03:10:58.688Z,12.70
2022-09-03T03:13:26.248Z,12.70
2022-09-03T03:15:56.698Z,12.66
2022-09-03T03:18:23.148Z,12.61
2022-09-03T03:23:15.850Z,12.62
2022-09-03T03:25:42.265Z,12.62
2022-09-03T03:28:08.742Z,12.67
2022-09-03T03:30:39.751Z,12.64
2022-09-03T03:33:07.340Z,12.62
2022-09-03T03:35:33.815Z,12.62
2022-09-03T03:38:00.736Z,12.59
2022-09-03T03:40:27.128Z,12.55
2022-09-03T03:45:20.957Z,12.49
2022-09-03T03:47:47.370Z,12.46
2022-09-03T03:50:13.717Z,12.47
2022-09-03T03:52:40.146Z,12.49
2022-09-03T03:55:06.850Z,12.46
2022-09-03T03:57:33.245Z,12.34
2022-09-03T03:59:59.765Z,12.34
2022-09-03T04:02:26.515Z,12.30
2022-09-03T04:04:52.946Z,12.19
2022-09-03T04:07:19.336Z,12.23
2022-09-03T04:09:45.816Z,12.15
2022-09-03T04:12:12.207Z,12.09
2022-09-03T04:14:38.822Z,12.11
2022-09-03T04:17:05.239Z,12.10
2022-09-03T04:19:31.736Z,12.04
2022-09-03T04:21:58.145Z,12.10
2022-09-03T04:24:24.572Z,11.99
2022-09-03T04:26:50.972Z,12.05
2022-09-03T04:29:18.250Z,12.01
2022-09-03T04:32:04.626Z,12.06
2022-09-03T04:34:31.012Z,11.98
2022-09-03T04:36:58.975Z,11.97
2022-09-03T04:39:26.050Z,12.00
2022-09-03T04:41:52.621Z,12.02
2022-09-03T04:44:18.977Z,12.04
2022-09-03T04:46:47.707Z,11.97
2022-09-03T04:49:14.705Z,11.96
2022-09-03T04:51:41.205Z,11.89
2022-09-03T04:54:07.741Z,11.91
2022-09-03T04:56:35.224Z,11.87
2022-09-03T04:59:07.221Z,11.83
2022-09-03T05:01:35.261Z,11.79
2022-09-03T05:04:02.730Z,11.77
2022-09-03T05:06:31.409Z,11.72
2022-09-03T05:08:58.331Z,11.77
2022-09-03T05:11:26.227Z,11.81
2022-09-03T05:13:55.100Z,11.80
2022-09-03T05:16:23.450Z,11.80
2022-09-03T05:18:53.942Z,11.79
2022-09-03T05:21:20.601Z,11.77
2022-09-03T05:23:48.686Z,11.79
2022-09-03T05:26:18.015Z,11.88
2022-09-03T05:28:44.921Z,11.95
2022-09-03T05:31:14.331Z,11.93
2022-09-03T05:33:52.605Z,12.03
2022-09-03T05:36:22.846Z,12.10
2022-09-03T05:38:50.065Z,12.11
2022-09-03T05:41:19.046Z,12.22
2022-09-03T05:43:51.779Z,12.30
2022-09-03T05:46:18.505Z,12.38
2022-09-03T05:48:45.256Z,12.49
2022-09-03T05:51:17.795Z,12.60
2022-09-03T05:53:48.812Z,12.62
2022-09-03T05:56:20.578Z,12.74
2022-09-03T05:58:53.630Z,12.74
2022-09-03T06:01:25.572Z,12.89
2022-09-03T06:03:58.351Z,12.93
2022-09-03T06:06:25.939Z,13.01
2022-09-03T06:08:58.054Z,13.10
2022-09-03T06:11:27.916Z,13.18
2022-09-03T06:14:05.712Z,13.35
2022-09-03T06:16:34.281Z,13.39
2022-09-03T06:19:01.020Z,13.50
2022-09-03T06:21:28.409Z,13.57
2022-09-03T06:23:59.828Z,13.66
2022-09-03T06:26:28.414Z,13.74
2022-09-03T06:28:56.108Z,13.77
2022-09-03T06:33:49.548Z,13.94
2022-09-03T06:36:18.447Z,13.99
2022-09-03T06:38:46.051Z,14.09
2022-09-03T06:41:25.133Z,14.14
2022-09-03T06:44:12.263Z,14.25
2022-09-03T06:46:42.223Z,14.31
2022-09-03T06:51:37.470Z,14.43
2022-09-03T06:54:06.738Z,14.54
2022-09-03T06:56:39.498Z,14.66
2022-09-03T06:59:12.101Z,14.91
2022-09-03T07:01:43.618Z,14.93
2022-09-03T07:06:40.088Z,15.10
2022-09-03T07:11:35.768Z,15.28
2022-09-03T07:14:04.420Z,15.38
2022-09-03T07:16:34.114Z,15.46
2022-09-03T07:21:29.453Z,15.66
2022-09-03T07:23:56.912Z,15.76
2022-09-03T07:26:26.162Z,15.82
2022-09-03T07:31:25.811Z,16.11
2022-09-03T07:33:59.935Z,16.16
2022-09-03T07:36:29.168Z,16.21
2022-09-03T07:39:01.672Z,16.33
2022-09-03T07:41:29.012Z,16.36
2022-09-03T07:43:56.895Z,16.42
2022-09-03T07:46:25.429Z,16.56
2022-09-03T07:48:57.120Z,16.73
2022-09-03T07:51:26.500Z,16.75
2022-09-03T07:53:55.316Z,16.80
2022-09-03T07:56:21.920Z,16.73
2022-09-03T07:58:48.354Z,16.83
2022-09-03T08:01:19.695Z,16.92
2022-09-03T08:03:48.625Z,17.10
2022-09-03T08:06:16.600Z,17.08
2022-09-03T08:08:45.126Z,17.20
2022-09-03T08:11:17.312Z,17.38
2022-09-03T08:16:18.674Z,17.46
2022-09-03T08:18:47.387Z,17.60
2022-09-03T08:21:17.790Z,17.70
2022-09-03T08:26:12.703Z,17.91
2022-09-03T08:31:20.636Z,18.03
2022-09-03T08:36:22.288Z,18.04
2022-09-03T08:38:54.796Z,18.12
2022-09-03T08:41:37.264Z,18.26
2022-09-03T08:44:10.273Z,18.33
2022-09-03T08:46:54.225Z,18.31
2022-09-03T08:49:55.673Z,18.34
2022-09-03T08:52:26.059Z,18.50
2022-09-03T08:55:00.897Z,18.54
2022-09-03T08:59:56.407Z,18.77
2022-09-03T09:05:40.293Z,19.16
2022-09-03T09:08:34.094Z,19.12
2022-09-03T09:14:03.697Z,19.40
2022-09-03T09:16:40.356Z,19.46
2022-09-03T09:19:33.848Z,19.40
2022-09-03T09:24:39.303Z,19.53
2022-09-03T09:27:06.916Z,19.60
2022-09-03T09:29:37.085Z,19.59
2022-09-03T09:34:36.232Z,19.78
2022-09-03T09:39:32.153Z,20.12
2022-09-03T09:42:08.121Z,20.20
2022-09-03T09:44:36.049Z,20.22
2022-09-03T09:47:26.745Z,20.21
2022-09-03T09:49:56.289Z,20.27
2022-09-03T09:52:25.964Z,20.38
2022-09-03T09:54:54.817Z,20.53
2022-09-03T09:57:25.583Z,20.61
2022-09-03T10:02:47.002Z,20.68
2022-09-03T10:07:40.246Z,20.79
2022-09-03T10:10:16.582Z,20.79
2022-09-03T10:13:01.602Z,20.72
2022-09-03T10:20:42.064Z,21.01
2022-09-03T10:23:18.436Z,21.18
2022-09-03T10:28:31.387Z,21.30
2022-09-03T10:33:49.101Z,22.02
2022-09-03T10:36:50.877Z,22.17
2022-09-03T10:39:20.104Z,22.25
2022-09-03T10:44:46.319Z,22.24
2022-09-03T10:47:41.744Z,22.21
2022-09-03T10:50:17.339Z,22.31
2022-09-03T10:53:26.176Z,22.38
2022-09-03T10:56:05.381Z,22.25
2022-09-03T10:58:53.239Z,22.08
2022-09-03T11:01:34.889Z,22.17
2022-09-03T11:04:23.624Z,22.50
2022-09-03T11:06:58.178Z,22.74
2022-09-03T11:09:37.985Z,22.76
2022-09-03T11:12:10.604Z,22.79
2022-09-03T11:22:43.700Z,23.04
2022-09-03T11:25:13.646Z,22.89
2022-09-03T11:27:42.782Z,22.78
2022-09-03T11:32:56.086Z,22.58
2022-09-03T11:38:00.284Z,22.73
2022-09-03T11:40:35.894Z,22.80
2022-09-03T11:43:28.400Z,22.79
2022-09-03T11:46:27.816Z,22.76
2022-09-03T11:48:57.625Z,22.90
2022-09-03T11:51:29.961Z,22.93
2022-09-03T11:56:25.212Z,23.14
2022-09-03T11:59:10.483Z,23.18
2022-09-03T12:01:38.379Z,23.23
2022-09-03T12:04:07.908Z,23.05
2022-09-03T12:07:00.249Z,23.12
2022-09-03T12:09:38.708Z,23.21
2022-09-03T12:12:30.256Z,23.41
2022-09-03T12:15:15.049Z,23.45
2022-09-03T12:17:47.262Z,23.33
2022-09-03T12:25:13.538Z,23.52
2022-09-03T12:30:17.053Z,23.48
2022-09-03T12:32:43.761Z,23.63
2022-09-03T12:38:08.491Z,23.63
2022-09-03T12:40:35.600Z,23.58
2022-09-03T12:46:16.988Z,23.41
2022-09-03T12:54:22.104Z,23.53
2022-09-03T12:57:00.058Z,23.61
2022-09-03T12:59:30.120Z,23.46
2022-09-03T13:02:03.875Z,23.61
2022-09-03T13:04:35.244Z,23.64
2022-09-03T13:09:33.800Z,23.61
2022-09-03T13:14:28.189Z,23.47
2022-09-03T13:17:20.500Z,23.54
2022-09-03T13:19:58.268Z,23.53
2022-09-03T13:25:14.527Z,23.57
2022-09-03T13:28:17.759Z,23.40
2022-09-03T13:31:26.918Z,23.35
2022-09-03T13:36:56.279Z,23.52
2022-09-03T13:39:38.388Z,23.54
2022-09-03T13:44:50.137Z,23.74
2022-09-03T13:50:22.197Z,23.74
2022-09-03T13:55:25.812Z,23.28
2022-09-03T13:58:30.698Z,23.35
2022-09-03T14:03:48.984Z,23.30
2022-09-03T14:09:14.216Z,22.94
2022-09-03T14:12:19.455Z,22.86
2022-09-03T14:14:56.771Z,22.78
2022-09-03T14:17:37.799Z,22.82
2022-09-03T14:20:06.879Z,22.84
2022-09-03T14:22:48.210Z,22.85
2022-09-03T14:27:45.814Z,22.64
2022-09-03T14:30:38.197Z,22.58
2022-09-03T14:36:14.525Z,22.45
2022-09-03T14:41:37.464Z,22.51
2022-09-03T14:46:49.298Z,22.59
2022-09-03T14:49:26.776Z,22.64
2022-09-03T14:52:12.115Z,22.66
2022-09-03T14:55:00.827Z,22.83
2022-09-03T14:57:43.682Z,22.74
2022-09-03T15:00:43.395Z,22.82
2022-09-03T15:11:23.518Z,22.87
2022-09-03T15:13:54.431Z,22.75
2022-09-03T15:16:52.490Z,22.72
2022-09-03T15:22:58.067Z,22.83
2022-09-03T15:30:20.882Z,22.91
2022-09-03T15:33:03.068Z,22.92
2022-09-03T15:35:38.325Z,22.95
2022-09-03T15:38:20.601Z,22.91
2022-09-03T15:40:46.934Z,22.86
2022-09-03T15:43:27.330Z,22.87
2022-09-03T15:45:59.248Z,22.85
2022-09-03T15:48:45.955Z,22.92
2022-09-03T15:51:34.057Z,23.02
2022-09-03T15:54:12.534Z,23.06
2022-09-03T15:56:55.820Z,23.08
2022-09-03T15:59:51.441Z,22.97
2022-09-03T16:02:33.377Z,22.93
2022-09-03T16:07:38.413Z,22.87
2022-09-03T16:10:24.719Z,22.76
2022-09-03T16:13:08.833Z,22.77
2022-09-03T16:18:33.695Z,22.73
2022-09-03T16:21:21.362Z,22.71
2022-09-03T16:24:05.849Z,22.68
2022-09-03T16:26:37.265Z,22.65
2022-09-03T16:29:18.923Z,22.62
2022-09-03T16:37:26.761Z,22.61
2022-09-03T16:43:39.665Z,22.60
2022-09-03T16:54:06.159Z,22.68
2022-09-03T16:56:50.971Z,22.62
2022-09-03T16:59:17.394Z,22.57
2022-09-03T17:01:43.845Z,22.51
2022-09-03T17:04:22.423Z,22.42
2022-09-03T17:09:54.311Z,22.28
2022-09-03T17:12:41.742Z,22.23
2022-09-03T17:18:14.213Z,22.14
2022-09-03T17:23:26.109Z,22.14
2022-09-03T17:26:31.990Z,22.13
2022-09-03T17:31:51.584Z,22.01
2022-09-03T17:37:12.997Z,21.96
2022-09-03T17:39:55.332Z,21.98
2022-09-03T17:42:30.041Z,21.95
2022-09-03T17:45:11.753Z,21.84
2022-09-03T17:50:18.594Z,21.63
2022-09-03T17:52:49.595Z,21.58
2022-09-03T17:55:38.550Z,21.46
2022-09-03T17:58:14.516Z,21.32
2022-09-03T18:00:57.910Z,21.30
2022-09-03T18:06:06.048Z,21.30
2022-09-03T18:08:58.910Z,21.23
2022-09-03T18:11:34.228Z,21.26
2022-09-03T18:20:04.573Z,21.05
2022-09-03T18:23:12.089Z,20.98
2022-09-03T18:26:00.984Z,20.91
2022-09-03T18:28:56.293Z,20.83
2022-09-03T18:40:03.051Z,20.67
2022-09-03T18:43:36.900Z,20.53
2022-09-03T18:50:03.217Z,20.37
2022-09-03T18:56:00.702Z,20.23
2022-09-03T19:01:56.451Z,20.18
2022-09-03T19:08:00.038Z,20.16
2022-09-03T19:13:47.448Z,19.94
2022-09-03T19:16:47.510Z,19.97
2022-09-03T19:22:30.983Z,19.85
2022-09-03T19:25:30.864Z,19.80
2022-09-03T19:28:40.446Z,19.69
2022-09-03T19:31:40.682Z,19.70
2022-09-03T19:34:44.338Z,19.65
2022-09-03T19:37:35.254Z,19.65
2022-09-03T19:41:06.830Z,19.53
2022-09-03T19:43:57.966Z,19.42
2022-09-03T19:47:00.556Z,19.38
2022-09-03T19:50:04.081Z,19.34
2022-09-03T19:53:00.764Z,19.32
2022-09-03T19:55:50.669Z,19.31
2022-09-03T19:58:43.667Z,19.17
2022-09-03T20:01:30.769Z,19.10
2022-09-03T20:07:04.263Z,18.97
2022-09-03T20:09:59.502Z,18.85
2022-09-03T20:12:31.098Z,18.86
2022-09-03T20:14:57.481Z,18.74
2022-09-03T20:17:41.816Z,18.75
2022-09-03T20:20:36.009Z,18.66
2022-09-03T20:23:15.737Z,18.63
2022-09-03T20:25:54.239Z,18.57
2022-09-03T20:28:41.809Z,18.47
2022-09-03T20:31:44.344Z,18.45
2022-09-03T20:34:35.115Z,18.37
2022-09-03T20:37:04.416Z,18.31
2022-09-03T20:40:06.675Z,18.27
2022-09-03T20:43:03.226Z,18.19
2022-09-03T20:45:49.393Z,18.18
2022-09-03T20:51:12.962Z,18.12
2022-09-03T20:54:08.625Z,18.10
2022-09-03T20:56:59.009Z,18.03
2022-09-03T20:59:55.474Z,17.99
2022-09-03T21:04:52.231Z,17.91
2022-09-03T21:07:55.850Z,17.88
2022-09-03T21:13:32.618Z,17.77
2022-09-03T21:16:24.349Z,17.68
2022-09-03T21:19:11.752Z,17.63
2022-09-03T21:21:40.751Z,17.64
2022-09-03T21:24:22.892Z,17.57
2022-09-03T21:29:41.511Z,17.51
2022-09-03T21:32:23.404Z,17.48
2022-09-03T21:37:24.916Z,17.41
2022-09-03T21:39:55.757Z,17.35
2022-09-03T21:42:37.720Z,17.29
2022-09-03T21:45:11.717Z,17.23
2022-09-03T21:47:44.817Z,17.17
2022-09-03T21:50:19.502Z,17.09
2022-09-03T21:52:59.188Z,17.00
2022-09-03T21:55:37.561Z,16.98
2022-09-03T21:58:24.730Z,16.91
2022-09-03T22:00:56.987Z,16.84
2022-09-03T22:06:01.396Z,16.83
2022-09-03T22:08:32.653Z,16.82
2022-09-03T22:11:05.789Z,16.80
2022-09-03T22:13:39.312Z,16.72
2022-09-03T22:18:50.306Z,16.55
2022-09-03T22:21:24.692Z,16.59
2022-09-03T22:24:10.191Z,16.61
2022-09-03T22:26:49.074Z,16.62
2022-09-03T22:29:25.429Z,16.55
2022-09-03T22:32:20.771Z,16.54
2022-09-03T22:35:25.547Z,16.52
2022-09-03T22:38:10.559Z,16.49
2022-09-03T22:40:52.574Z,16.48
2022-09-03T22:43:54.471Z,16.47
2022-09-03T22:49:06.283Z,16.44
2022-09-03T22:51:46.380Z,16.37
2022-09-03T22:54:41.874Z,16.35
2022-09-03T22:57:10.568Z,16.35
2022-09-03T23:00:01.898Z,16.30
2022-09-03T23:02:31.454Z,16.13
2022-09-03T23:05:08.481Z,16.06
2022-09-03T23:08:06.153Z,16.05
2022-09-03T23:10:43.871Z,16.01
2022-09-03T23:13:29.910Z,16.00
2022-09-03T23:16:19.998Z,15.96
2022-09-03T23:18:49.258Z,15.86
2022-09-03T23:21:24.432Z,15.81
2022-09-03T23:23:57.782Z,15.74
2022-09-03T23:26:42.566Z,15.63
2022-09-03T23:29:37.204Z,15.69
2022-09-03T23:32:06.345Z,15.72
2022-09-03T23:34:32.781Z,15.72
2022-09-03T23:37:33.056Z,15.69
2022-09-03T23:40:15.874Z,15.66
2022-09-03T23:42:48.157Z,15.64
2022-09-03T23:45:36.387Z,15.60
2022-09-03T23:48:44.319Z,15.57
2022-09-03T23:51:29.200Z,15.55
2022-09-03T23:54:13.616Z,15.51
2022-09-03T23:57:11.079Z,15.52
2022-09-03T23:59:52.871Z,15.45
